Al Kazimiyah, Iraq
Current Conditions -  °F | °C
As of 8:00 AM on Monday 22 Dec 2014 (Local Time) from ORBI Reporting Station
Haze Haze  
Wind Chill: 43°   Ceiling: Unl
Heat Index: 43°   Visibility: 2.1mi
Dew Point: 41°   Wind: 3mph
Humidity: 93%   Direction: 280°W
Pressure: 30.09"   Gusts: NA
Location:  33.31°N, 44.19°E
Report Text: ORBI 220500Z 28003KT 3500 BR NSC 06/05 Q1019
Loading
Personal Weather Stations






























Interactive Weather Map New forecast layout! Learn more

10-Day Weather Forecast

Advertisements
Track Severe Weather on mobile